RFF9986 HL59-DFFD
Flight info
| Callsign | RFF9986 |
|---|---|
| Flight time | N/A |
| Altitude | 34000 |
| Route | K0850F330 DCT BNA B727 IMN UB727 TMS UG855 NY UG854 BULSA |
| Aircraft | T154/M-VGD/A |
Departure
| Time | N/A |
|---|---|
| Airport | Al Khadim Airport (HL59) |
Arrival
| Time | 2026-04-29 03:34 |
|---|---|
| Airport | Ouagadougou Thomas Sankara International Airport (DFFD) |
| Time | Latitude | Longitude | Altitude | Speed | Heading |
|---|---|---|---|---|---|
| 2026-04-28 23:59 | 30.31393 | 14.71746 | 33972 ft | 427 kts | 250° |
| 2026-04-29 00:00 | 30.28762 | 14.65554 | 33969 ft | 428 kts | 250° |
| 2026-04-29 00:00 | 30.26131 | 14.59371 | 33978 ft | 429 kts | 250° |
| 2026-04-29 00:01 | 30.23491 | 14.53176 | 33971 ft | 429 kts | 250° |
| 2026-04-29 00:01 | 30.20856 | 14.47003 | 33972 ft | 429 kts | 250° |
| 2026-04-29 00:02 | 30.18210 | 14.40814 | 33969 ft | 429 kts | 250° |
| 2026-04-29 00:02 | 30.15571 | 14.34655 | 33975 ft | 429 kts | 249° |
| 2026-04-29 00:03 | 30.12924 | 14.28463 | 33981 ft | 429 kts | 249° |
| 2026-04-29 00:03 | 30.10270 | 14.22274 | 33980 ft | 430 kts | 249° |
| 2026-04-29 00:04 | 30.07611 | 14.16096 | 33974 ft | 430 kts | 249° |
| 2026-04-29 00:04 | 30.04954 | 14.09931 | 33977 ft | 430 kts | 249° |
| 2026-04-29 00:05 | 30.02289 | 14.03758 | 33978 ft | 431 kts | 249° |
| 2026-04-29 00:05 | 29.99610 | 13.97565 | 33974 ft | 431 kts | 249° |
| 2026-04-29 00:06 | 29.96939 | 13.91396 | 33975 ft | 431 kts | 249° |
| 2026-04-29 00:06 | 29.94264 | 13.85234 | 33976 ft | 431 kts | 249° |
| 2026-04-29 00:07 | 29.91583 | 13.79063 | 33971 ft | 431 kts | 249° |
| 2026-04-29 00:07 | 29.88896 | 13.72907 | 33966 ft | 432 kts | 249° |
| 2026-04-29 00:08 | 29.86318 | 13.66729 | 33980 ft | 429 kts | 252° |
| 2026-04-29 00:08 | 29.83901 | 13.60453 | 33979 ft | 429 kts | 251° |
| 2026-04-29 00:09 | 29.81457 | 13.54197 | 33976 ft | 428 kts | 251° |
| 2026-04-29 00:09 | 29.79013 | 13.47982 | 33977 ft | 428 kts | 251° |
| 2026-04-29 00:10 | 29.76553 | 13.41744 | 33976 ft | 428 kts | 251° |
| 2026-04-29 00:10 | 29.74093 | 13.35512 | 33940 ft | 429 kts | 251° |
| 2026-04-29 00:11 | 29.71629 | 13.29266 | 33945 ft | 430 kts | 251° |
| 2026-04-29 00:12 | 29.67920 | 13.19896 | 33947 ft | 431 kts | 251° |
| 2026-04-29 00:12 | 29.65445 | 13.13668 | 33944 ft | 431 kts | 251° |
| 2026-04-29 00:13 | 29.62952 | 13.07402 | 33944 ft | 433 kts | 251° |
| 2026-04-29 00:13 | 29.60440 | 13.01103 | 33942 ft | 434 kts | 251° |
| 2026-04-29 00:14 | 29.57930 | 12.94816 | 33942 ft | 437 kts | 251° |
| 2026-04-29 00:14 | 29.55397 | 12.88480 | 33949 ft | 438 kts | 251° |
| 2026-04-29 00:15 | 29.52849 | 12.82128 | 33956 ft | 440 kts | 250° |
| 2026-04-29 00:15 | 29.49914 | 12.75936 | 33968 ft | 444 kts | 247° |
| 2026-04-29 00:16 | 29.46921 | 12.69783 | 33993 ft | 443 kts | 247° |
| 2026-04-29 00:16 | 29.43954 | 12.63574 | 34002 ft | 443 kts | 248° |
| 2026-04-29 00:17 | 29.41021 | 12.57421 | 33999 ft | 444 kts | 248° |
| 2026-04-29 00:17 | 29.38053 | 12.51200 | 34003 ft | 444 kts | 248° |
| 2026-04-29 00:18 | 29.35096 | 12.45011 | 34003 ft | 444 kts | 247° |
| 2026-04-29 00:18 | 29.32134 | 12.38823 | 34001 ft | 444 kts | 247° |
| 2026-04-29 00:19 | 29.29186 | 12.32667 | 33978 ft | 444 kts | 247° |
| 2026-04-29 00:19 | 29.26236 | 12.26496 | 33997 ft | 445 kts | 247° |
| 2026-04-29 00:20 | 29.23243 | 12.20264 | 34007 ft | 445 kts | 247° |
| 2026-04-29 00:20 | 29.20266 | 12.14080 | 34007 ft | 445 kts | 246° |
| 2026-04-29 00:21 | 29.17284 | 12.07901 | 34000 ft | 446 kts | 247° |
| 2026-04-29 00:21 | 29.14306 | 12.01733 | 33997 ft | 446 kts | 247° |
| 2026-04-29 00:22 | 29.11317 | 11.95552 | 34004 ft | 446 kts | 247° |
| 2026-04-29 00:22 | 29.08308 | 11.89341 | 34005 ft | 446 kts | 246° |
| 2026-04-29 00:23 | 29.05313 | 11.83169 | 34005 ft | 445 kts | 246° |
| 2026-04-29 00:23 | 29.02319 | 11.77010 | 34004 ft | 445 kts | 246° |
| 2026-04-29 00:24 | 28.99323 | 11.70855 | 34003 ft | 444 kts | 246° |
| 2026-04-29 00:24 | 28.96334 | 11.64724 | 34006 ft | 444 kts | 245° |
| 2026-04-29 00:25 | 28.93346 | 11.58602 | 34002 ft | 443 kts | 245° |
| 2026-04-29 00:25 | 28.90335 | 11.52440 | 34002 ft | 443 kts | 245° |
| 2026-04-29 00:26 | 28.87339 | 11.46374 | 34014 ft | 442 kts | 245° |
| 2026-04-29 00:26 | 28.84458 | 11.40200 | 34014 ft | 440 kts | 248° |
| 2026-04-29 00:27 | 28.81780 | 11.33944 | 33994 ft | 441 kts | 248° |
| 2026-04-29 00:27 | 28.79065 | 11.27685 | 34007 ft | 441 kts | 248° |
| 2026-04-29 00:28 | 28.76325 | 11.21432 | 34008 ft | 442 kts | 248° |
| 2026-04-29 00:28 | 28.73591 | 11.15221 | 34006 ft | 442 kts | 248° |
| 2026-04-29 00:29 | 28.70831 | 11.08960 | 34007 ft | 442 kts | 248° |
| 2026-04-29 00:29 | 28.68084 | 11.02738 | 34007 ft | 442 kts | 247° |
| 2026-04-29 00:30 | 28.65326 | 10.96503 | 34004 ft | 442 kts | 247° |
| 2026-04-29 00:30 | 28.62554 | 10.90247 | 34005 ft | 443 kts | 247° |
| 2026-04-29 00:31 | 28.59791 | 10.84018 | 34004 ft | 443 kts | 246° |
| 2026-04-29 00:31 | 28.57012 | 10.77766 | 34004 ft | 444 kts | 246° |
| 2026-04-29 00:32 | 28.54226 | 10.71506 | 34005 ft | 444 kts | 246° |
| 2026-04-29 00:32 | 28.51438 | 10.65251 | 34006 ft | 445 kts | 246° |
| 2026-04-29 00:33 | 28.48650 | 10.59005 | 34007 ft | 445 kts | 246° |
| 2026-04-29 00:33 | 28.45852 | 10.52750 | 34006 ft | 445 kts | 246° |
| 2026-04-29 00:34 | 28.43061 | 10.46518 | 34006 ft | 445 kts | 246° |
| 2026-04-29 00:34 | 28.40249 | 10.40248 | 34007 ft | 445 kts | 246° |
| 2026-04-29 00:35 | 28.37439 | 10.33992 | 33996 ft | 446 kts | 246° |
| 2026-04-29 00:35 | 28.34655 | 10.27776 | 34009 ft | 446 kts | 246° |
| 2026-04-29 00:36 | 28.31831 | 10.21498 | 34009 ft | 446 kts | 246° |
| 2026-04-29 00:36 | 28.29009 | 10.15245 | 34007 ft | 446 kts | 246° |
| 2026-04-29 00:37 | 28.26188 | 10.09005 | 34007 ft | 447 kts | 246° |
| 2026-04-29 00:37 | 28.23358 | 10.02753 | 34008 ft | 447 kts | 246° |
| 2026-04-29 00:38 | 28.20530 | 9.96517 | 34008 ft | 447 kts | 246° |
| 2026-04-29 00:38 | 28.17697 | 9.90276 | 34007 ft | 447 kts | 246° |
| 2026-04-29 00:39 | 28.14845 | 9.84005 | 34007 ft | 447 kts | 246° |
| 2026-04-29 00:39 | 28.12021 | 9.77806 | 34008 ft | 447 kts | 246° |
| 2026-04-29 00:40 | 28.09164 | 9.71543 | 34006 ft | 447 kts | 246° |
| 2026-04-29 00:40 | 28.06127 | 9.65461 | 34006 ft | 451 kts | 236° |
| 2026-04-29 00:40 | 28.03923 | 9.62899 | 34013 ft | 457 kts | 223° |
| 2026-04-29 00:41 | 28.01265 | 9.60920 | 34016 ft | 463 kts | 213° |
| 2026-04-29 00:41 | 27.95660 | 9.57357 | 34005 ft | 463 kts | 216° |
| 2026-04-29 00:42 | 27.90277 | 9.53437 | 34005 ft | 462 kts | 218° |
| 2026-04-29 00:42 | 27.84964 | 9.49408 | 34016 ft | 462 kts | 219° |
| 2026-04-29 00:43 | 27.79661 | 9.45352 | 34006 ft | 462 kts | 219° |
| 2026-04-29 00:43 | 27.74337 | 9.41273 | 34005 ft | 462 kts | 219° |
| 2026-04-29 00:44 | 27.69047 | 9.37224 | 34006 ft | 463 kts | 219° |
| 2026-04-29 00:44 | 27.63743 | 9.33159 | 33995 ft | 463 kts | 219° |
| 2026-04-29 00:45 | 27.58445 | 9.29087 | 34002 ft | 464 kts | 219° |
| 2026-04-29 00:45 | 27.53114 | 9.25012 | 34007 ft | 464 kts | 218° |
| 2026-04-29 00:46 | 27.47772 | 9.20941 | 34008 ft | 464 kts | 218° |
| 2026-04-29 00:46 | 27.42430 | 9.16876 | 34007 ft | 464 kts | 218° |
| 2026-04-29 00:47 | 27.37095 | 9.12821 | 34008 ft | 464 kts | 218° |
| 2026-04-29 00:47 | 27.31778 | 9.08784 | 34008 ft | 465 kts | 218° |
| 2026-04-29 00:48 | 27.26427 | 9.04726 | 34008 ft | 465 kts | 218° |
| 2026-04-29 00:48 | 27.21079 | 9.00674 | 34008 ft | 465 kts | 218° |
| 2026-04-29 00:49 | 27.15713 | 8.96615 | 34008 ft | 465 kts | 218° |
| 2026-04-29 00:49 | 27.10344 | 8.92558 | 34008 ft | 465 kts | 218° |
| 2026-04-29 00:50 | 27.04995 | 8.88520 | 34007 ft | 465 kts | 218° |
| 2026-04-29 00:50 | 26.99660 | 8.84499 | 34006 ft | 465 kts | 217° |
| 2026-04-29 00:51 | 26.94293 | 8.80432 | 34006 ft | 466 kts | 217° |
| 2026-04-29 00:51 | 26.88952 | 8.76379 | 33988 ft | 467 kts | 217° |
| 2026-04-29 00:52 | 26.83542 | 8.72306 | 34009 ft | 467 kts | 217° |
| 2026-04-29 00:52 | 26.78160 | 8.68243 | 34009 ft | 467 kts | 217° |
| 2026-04-29 00:53 | 26.72811 | 8.64203 | 34007 ft | 468 kts | 217° |
| 2026-04-29 00:53 | 26.67545 | 8.59988 | 34013 ft | 466 kts | 220° |
| 2026-04-29 00:54 | 26.62356 | 8.55587 | 34008 ft | 467 kts | 220° |
| 2026-04-29 00:54 | 26.57157 | 8.51240 | 34008 ft | 467 kts | 220° |
| 2026-04-29 00:55 | 26.51984 | 8.46941 | 34008 ft | 467 kts | 220° |
| 2026-04-29 00:55 | 26.46776 | 8.42621 | 34008 ft | 467 kts | 220° |
| 2026-04-29 00:56 | 26.41550 | 8.38292 | 34009 ft | 467 kts | 220° |
| 2026-04-29 00:56 | 26.36343 | 8.33980 | 33994 ft | 468 kts | 219° |
| 2026-04-29 00:57 | 26.31175 | 8.29679 | 34007 ft | 468 kts | 219° |
| 2026-04-29 00:57 | 26.25930 | 8.25339 | 34008 ft | 468 kts | 219° |
| 2026-04-29 00:58 | 26.20739 | 8.21056 | 34006 ft | 468 kts | 219° |
| 2026-04-29 00:58 | 26.15512 | 8.16750 | 34007 ft | 468 kts | 219° |
| 2026-04-29 00:59 | 26.10263 | 8.12431 | 34008 ft | 468 kts | 219° |
| 2026-04-29 00:59 | 26.05046 | 8.08143 | 34007 ft | 469 kts | 219° |
| 2026-04-29 01:00 | 25.99794 | 8.03831 | 34008 ft | 469 kts | 219° |
| 2026-04-29 01:00 | 25.94578 | 7.99517 | 34008 ft | 468 kts | 219° |
| 2026-04-29 01:01 | 25.89384 | 7.95213 | 34002 ft | 469 kts | 219° |
| 2026-04-29 01:01 | 25.84133 | 7.90899 | 34010 ft | 469 kts | 219° |
| 2026-04-29 01:02 | 25.78914 | 7.86602 | 34005 ft | 468 kts | 219° |
| 2026-04-29 01:02 | 25.73725 | 7.82324 | 34004 ft | 469 kts | 219° |
| 2026-04-29 01:03 | 25.68492 | 7.78015 | 34002 ft | 469 kts | 219° |
| 2026-04-29 01:03 | 25.63252 | 7.73703 | 34003 ft | 469 kts | 219° |
| 2026-04-29 01:04 | 25.58036 | 7.69416 | 34004 ft | 469 kts | 219° |
| 2026-04-29 01:04 | 25.52824 | 7.65137 | 34003 ft | 469 kts | 219° |
| 2026-04-29 01:05 | 25.47596 | 7.60851 | 34004 ft | 469 kts | 219° |
| 2026-04-29 01:05 | 25.42355 | 7.56558 | 34004 ft | 469 kts | 219° |
| 2026-04-29 01:06 | 25.37129 | 7.52283 | 34004 ft | 469 kts | 219° |
| 2026-04-29 01:06 | 25.31909 | 7.48016 | 34004 ft | 469 kts | 219° |
| 2026-04-29 01:07 | 25.26686 | 7.43752 | 34004 ft | 469 kts | 219° |
| 2026-04-29 01:07 | 25.21426 | 7.39464 | 34004 ft | 469 kts | 219° |
| 2026-04-29 01:08 | 25.16210 | 7.35215 | 34003 ft | 469 kts | 219° |
| 2026-04-29 01:08 | 25.10959 | 7.30917 | 34012 ft | 469 kts | 219° |
| 2026-04-29 01:09 | 25.05736 | 7.26655 | 34006 ft | 470 kts | 218° |
| 2026-04-29 01:09 | 25.00469 | 7.22377 | 34002 ft | 470 kts | 218° |
| 2026-04-29 01:10 | 24.95205 | 7.18107 | 34003 ft | 471 kts | 217° |
| 2026-04-29 01:10 | 24.89998 | 7.13814 | 34050 ft | 471 kts | 218° |
| 2026-04-29 01:11 | 24.84750 | 7.09495 | 34104 ft | 470 kts | 218° |
| 2026-04-29 01:11 | 24.79504 | 7.05181 | 34144 ft | 470 kts | 218° |
| 2026-04-29 01:12 | 24.74289 | 7.00889 | 34146 ft | 471 kts | 218° |
| 2026-04-29 01:12 | 24.69062 | 6.96589 | 34152 ft | 471 kts | 218° |
| 2026-04-29 01:13 | 24.63833 | 6.92293 | 34147 ft | 471 kts | 218° |
| 2026-04-29 01:13 | 24.58563 | 6.87968 | 34147 ft | 471 kts | 218° |
| 2026-04-29 01:14 | 24.53340 | 6.83685 | 34148 ft | 471 kts | 218° |
| 2026-04-29 01:14 | 24.48121 | 6.79411 | 34147 ft | 471 kts | 218° |
| 2026-04-29 01:15 | 24.42869 | 6.75115 | 34148 ft | 471 kts | 218° |
| 2026-04-29 01:15 | 24.37603 | 6.70810 | 34148 ft | 471 kts | 218° |
| 2026-04-29 01:16 | 24.32356 | 6.66527 | 34148 ft | 471 kts | 218° |
| 2026-04-29 01:16 | 24.27113 | 6.62251 | 34148 ft | 471 kts | 218° |
| 2026-04-29 01:17 | 24.21860 | 6.57971 | 34148 ft | 471 kts | 218° |
| 2026-04-29 01:17 | 24.16624 | 6.53709 | 34149 ft | 471 kts | 218° |
| 2026-04-29 01:18 | 24.11359 | 6.49430 | 34148 ft | 471 kts | 218° |
| 2026-04-29 01:18 | 24.03473 | 6.43027 | 34149 ft | 471 kts | 218° |
| 2026-04-29 01:19 | 23.98232 | 6.38778 | 34148 ft | 471 kts | 218° |
| 2026-04-29 01:19 | 23.92992 | 6.34533 | 34145 ft | 472 kts | 217° |
| 2026-04-29 01:20 | 23.87741 | 6.30262 | 34135 ft | 472 kts | 217° |
| 2026-04-29 01:20 | 23.82458 | 6.26002 | 34151 ft | 472 kts | 217° |
| 2026-04-29 01:21 | 23.77209 | 6.21768 | 34153 ft | 472 kts | 217° |
| 2026-04-29 01:21 | 23.71927 | 6.17507 | 34153 ft | 472 kts | 217° |
| 2026-04-29 01:22 | 23.66659 | 6.13263 | 34154 ft | 472 kts | 217° |
| 2026-04-29 01:22 | 23.61381 | 6.09014 | 34152 ft | 472 kts | 217° |
| 2026-04-29 01:23 | 23.56086 | 6.04755 | 34154 ft | 472 kts | 217° |
| 2026-04-29 01:23 | 23.50841 | 6.00542 | 34154 ft | 472 kts | 217° |
| 2026-04-29 01:24 | 23.45557 | 5.96301 | 34155 ft | 472 kts | 217° |
| 2026-04-29 01:24 | 23.40264 | 5.92058 | 34154 ft | 472 kts | 217° |
| 2026-04-29 01:25 | 23.35016 | 5.87855 | 34154 ft | 472 kts | 217° |
| 2026-04-29 01:25 | 23.29700 | 5.83602 | 34154 ft | 472 kts | 217° |
| 2026-04-29 01:26 | 23.24448 | 5.79403 | 34153 ft | 472 kts | 217° |
| 2026-04-29 01:26 | 23.19138 | 5.75163 | 34153 ft | 472 kts | 217° |
| 2026-04-29 01:27 | 23.13857 | 5.70950 | 34155 ft | 472 kts | 217° |
| 2026-04-29 01:27 | 23.08575 | 5.66741 | 34153 ft | 472 kts | 217° |
| 2026-04-29 01:28 | 23.03266 | 5.62515 | 34154 ft | 473 kts | 217° |
| 2026-04-29 01:28 | 22.97982 | 5.58312 | 34157 ft | 472 kts | 218° |
| 2026-04-29 01:29 | 22.92720 | 5.54132 | 34157 ft | 470 kts | 218° |
| 2026-04-29 01:29 | 22.87463 | 5.49967 | 34135 ft | 469 kts | 218° |
| 2026-04-29 01:30 | 22.82215 | 5.45829 | 34146 ft | 468 kts | 218° |
| 2026-04-29 01:30 | 22.76447 | 5.42656 | 34168 ft | 471 kts | 199° |
| 2026-04-29 01:31 | 22.70145 | 5.40740 | 34149 ft | 472 kts | 199° |
| 2026-04-29 01:31 | 22.63871 | 5.38624 | 34151 ft | 472 kts | 201° |
| 2026-04-29 01:32 | 22.57641 | 5.36421 | 34152 ft | 472 kts | 201° |
| 2026-04-29 01:32 | 22.51421 | 5.34200 | 34144 ft | 472 kts | 201° |
| 2026-04-29 01:33 | 22.45205 | 5.31959 | 34156 ft | 472 kts | 201° |
| 2026-04-29 01:33 | 22.38973 | 5.29734 | 34158 ft | 473 kts | 200° |
| 2026-04-29 01:34 | 22.32760 | 5.27526 | 34156 ft | 473 kts | 200° |
| 2026-04-29 01:34 | 22.26519 | 5.25310 | 34155 ft | 473 kts | 200° |
| 2026-04-29 01:35 | 22.20281 | 5.23098 | 34155 ft | 473 kts | 200° |
| 2026-04-29 01:35 | 22.14042 | 5.20889 | 34156 ft | 473 kts | 200° |
| 2026-04-29 01:36 | 22.07781 | 5.18672 | 34156 ft | 473 kts | 200° |
| 2026-04-29 01:36 | 22.01563 | 5.16473 | 34155 ft | 473 kts | 200° |
| 2026-04-29 01:37 | 21.95305 | 5.14262 | 34156 ft | 473 kts | 200° |
| 2026-04-29 01:37 | 21.89059 | 5.12058 | 34144 ft | 474 kts | 200° |
| 2026-04-29 01:38 | 21.82834 | 5.09875 | 34152 ft | 473 kts | 200° |
| 2026-04-29 01:38 | 21.76562 | 5.07671 | 34151 ft | 473 kts | 200° |
| 2026-04-29 01:39 | 21.70347 | 5.05483 | 34150 ft | 473 kts | 200° |
| 2026-04-29 01:39 | 21.64087 | 5.03282 | 34149 ft | 474 kts | 200° |
| 2026-04-29 01:40 | 21.57836 | 5.01086 | 34147 ft | 474 kts | 200° |
| 2026-04-29 01:40 | 21.51578 | 4.98889 | 34148 ft | 474 kts | 200° |
| 2026-04-29 01:41 | 21.45322 | 4.96695 | 34149 ft | 474 kts | 200° |
| 2026-04-29 01:41 | 21.39077 | 4.94506 | 34147 ft | 474 kts | 200° |
| 2026-04-29 01:42 | 21.32830 | 4.92319 | 34148 ft | 475 kts | 200° |
| 2026-04-29 01:42 | 21.26571 | 4.90130 | 34149 ft | 475 kts | 200° |
| 2026-04-29 01:43 | 21.20264 | 4.87926 | 34148 ft | 475 kts | 200° |
| 2026-04-29 01:43 | 21.14011 | 4.85743 | 34148 ft | 476 kts | 200° |
| 2026-04-29 01:44 | 21.07753 | 4.83559 | 34151 ft | 476 kts | 200° |
| 2026-04-29 01:44 | 21.01459 | 4.81366 | 34155 ft | 475 kts | 201° |
| 2026-04-29 01:45 | 20.95193 | 4.79185 | 34155 ft | 473 kts | 201° |
| 2026-04-29 01:45 | 20.88949 | 4.77012 | 34137 ft | 472 kts | 201° |
| 2026-04-29 01:46 | 20.82736 | 4.74864 | 34152 ft | 471 kts | 201° |
| 2026-04-29 01:46 | 20.76522 | 4.72711 | 34148 ft | 471 kts | 201° |
| 2026-04-29 01:47 | 20.70305 | 4.70554 | 34147 ft | 471 kts | 201° |
| 2026-04-29 01:47 | 20.64109 | 4.68406 | 34147 ft | 471 kts | 201° |
| 2026-04-29 01:48 | 20.57874 | 4.66245 | 34147 ft | 471 kts | 201° |
| 2026-04-29 01:48 | 20.51650 | 4.64091 | 34146 ft | 471 kts | 201° |
| 2026-04-29 01:49 | 20.45473 | 4.61956 | 34146 ft | 471 kts | 201° |
| 2026-04-29 01:49 | 20.39262 | 4.59809 | 34148 ft | 471 kts | 201° |
| 2026-04-29 01:50 | 20.34338 | 4.58108 | 34149 ft | 471 kts | 201° |
| 2026-04-29 01:50 | 20.28110 | 4.55960 | 34151 ft | 471 kts | 201° |
| 2026-04-29 01:51 | 20.21942 | 4.53834 | 34150 ft | 471 kts | 201° |
| 2026-04-29 01:51 | 20.15736 | 4.51696 | 34152 ft | 471 kts | 201° |
| 2026-04-29 01:52 | 20.09510 | 4.49553 | 34153 ft | 471 kts | 201° |
| 2026-04-29 01:52 | 20.03319 | 4.47424 | 34153 ft | 471 kts | 201° |
| 2026-04-29 01:53 | 19.97098 | 4.45287 | 34155 ft | 471 kts | 201° |
| 2026-04-29 01:53 | 19.90907 | 4.43162 | 34155 ft | 471 kts | 201° |
| 2026-04-29 01:54 | 19.84701 | 4.41042 | 34162 ft | 471 kts | 201° |
| 2026-04-29 01:54 | 19.78463 | 4.38911 | 34151 ft | 471 kts | 201° |
| 2026-04-29 01:55 | 19.72246 | 4.36783 | 34153 ft | 471 kts | 201° |
| 2026-04-29 01:55 | 19.66010 | 4.34649 | 34149 ft | 471 kts | 200° |
| 2026-04-29 01:56 | 19.59803 | 4.32498 | 34155 ft | 472 kts | 201° |
| 2026-04-29 01:56 | 19.53607 | 4.30369 | 34157 ft | 472 kts | 200° |
| 2026-04-29 01:57 | 19.47377 | 4.28241 | 34156 ft | 472 kts | 200° |
| 2026-04-29 01:57 | 19.41128 | 4.26110 | 34157 ft | 472 kts | 200° |
| 2026-04-29 01:58 | 19.34908 | 4.23990 | 34152 ft | 472 kts | 200° |
| 2026-04-29 01:58 | 19.28642 | 4.21856 | 34102 ft | 473 kts | 200° |
| 2026-04-29 01:59 | 19.22418 | 4.19739 | 34038 ft | 474 kts | 200° |
| 2026-04-29 01:59 | 19.16165 | 4.17613 | 33992 ft | 474 kts | 200° |
| 2026-04-29 02:00 | 19.09892 | 4.15449 | 33972 ft | 474 kts | 201° |
| 2026-04-29 02:00 | 19.04152 | 4.13374 | 33950 ft | 474 kts | 201° |
| 2026-04-29 02:01 | 18.97924 | 4.11135 | 33925 ft | 474 kts | 201° |
| 2026-04-29 02:01 | 18.91707 | 4.08910 | 33900 ft | 475 kts | 201° |
| 2026-04-29 02:02 | 18.85441 | 4.06678 | 33893 ft | 475 kts | 200° |
| 2026-04-29 02:02 | 18.79229 | 4.04469 | 33884 ft | 476 kts | 200° |
| 2026-04-29 02:03 | 18.72986 | 4.02244 | 33887 ft | 476 kts | 200° |
| 2026-04-29 02:03 | 18.66723 | 4.00012 | 33888 ft | 476 kts | 200° |
| 2026-04-29 02:04 | 18.60467 | 3.97783 | 33890 ft | 476 kts | 200° |
| 2026-04-29 02:04 | 18.54221 | 3.95561 | 33891 ft | 476 kts | 200° |
| 2026-04-29 02:05 | 18.47961 | 3.93335 | 33891 ft | 476 kts | 200° |
| 2026-04-29 02:05 | 18.41731 | 3.91121 | 33891 ft | 476 kts | 200° |
| 2026-04-29 02:06 | 18.35465 | 3.88896 | 33891 ft | 476 kts | 200° |
| 2026-04-29 02:06 | 18.29233 | 3.86685 | 33890 ft | 476 kts | 200° |
| 2026-04-29 02:07 | 18.22986 | 3.84471 | 33890 ft | 476 kts | 200° |
| 2026-04-29 02:07 | 18.16726 | 3.82253 | 33891 ft | 476 kts | 200° |
| 2026-04-29 02:08 | 18.10465 | 3.80037 | 33892 ft | 476 kts | 200° |
| 2026-04-29 02:08 | 18.04214 | 3.77827 | 33892 ft | 476 kts | 200° |
| 2026-04-29 02:09 | 17.97985 | 3.75625 | 33891 ft | 476 kts | 200° |
| 2026-04-29 02:09 | 17.91723 | 3.73413 | 33891 ft | 476 kts | 200° |
| 2026-04-29 02:10 | 17.85463 | 3.71210 | 33888 ft | 476 kts | 200° |
| 2026-04-29 02:10 | 17.79175 | 3.69001 | 33872 ft | 477 kts | 200° |
| 2026-04-29 02:11 | 17.72943 | 3.66807 | 33873 ft | 477 kts | 200° |
| 2026-04-29 02:11 | 17.66645 | 3.64589 | 33868 ft | 477 kts | 200° |
| 2026-04-29 02:12 | 17.60408 | 3.62394 | 33860 ft | 477 kts | 200° |
| 2026-04-29 02:12 | 17.54146 | 3.60193 | 33859 ft | 477 kts | 200° |
| 2026-04-29 02:13 | 17.47855 | 3.57983 | 33860 ft | 477 kts | 200° |
| 2026-04-29 02:13 | 17.41613 | 3.55791 | 33861 ft | 477 kts | 200° |
| 2026-04-29 02:14 | 17.35326 | 3.53588 | 33863 ft | 476 kts | 192° |
| 2026-04-29 02:14 | 17.32183 | 3.53625 | 33147 ft | 477 kts | 146° |
| 2026-04-29 02:14 | 17.30156 | 3.54551 | 25764 ft | 275 kts | 57° |
| 2026-04-29 02:15 | 17.29525 | 3.54690 | 22296 ft | 274 kts | 229° |
| 2026-04-29 02:15 | 17.29206 | 3.54316 | 33976 ft | 325 kts | 217° |
| 2026-04-29 02:15 | 17.27094 | 3.53306 | 32160 ft | 394 kts | 177° |
| 2026-04-29 02:15 | 17.25726 | 3.53592 | 30331 ft | 447 kts | 148° |
| 2026-04-29 02:16 | 17.24775 | 3.55887 | 23015 ft | 563 kts | 54° |
| 2026-04-29 02:16 | 17.25980 | 3.56322 | 53500 ft | 566 kts | 325° |
| 2026-04-29 02:16 | 17.26374 | 3.56011 | 32910 ft | 374 kts | 304° |
| 2026-04-29 02:17 | 17.26381 | 3.54623 | 23626 ft | 557 kts | 222° |
| 2026-04-29 02:17 | 17.23595 | 3.53900 | 13341 ft | 593 kts | 192° |
| 2026-04-29 02:17 | 17.20056 | 3.52791 | 13458 ft | 490 kts | 202° |
| 2026-04-29 02:17 | 17.19687 | 3.52632 | 33534 ft | 380 kts | 203° |
| 2026-04-29 02:18 | 17.17884 | 3.51806 | 34084 ft | 370 kts | 207° |
| 2026-04-29 02:18 | 17.15596 | 3.50539 | 34147 ft | 380 kts | 217° |
| 2026-04-29 02:18 | 17.13529 | 3.48754 | 34122 ft | 392 kts | 230° |
| 2026-04-29 02:18 | 17.11845 | 3.46504 | 34144 ft | 405 kts | 232° |
| 2026-04-29 02:19 | 17.09801 | 3.44368 | 34134 ft | 420 kts | 219° |
| 2026-04-29 02:19 | 17.07304 | 3.42688 | 33830 ft | 442 kts | 206° |
| 2026-04-29 02:19 | 17.04387 | 3.41646 | 33914 ft | 449 kts | 195° |
| 2026-04-29 02:19 | 17.02303 | 3.41142 | 33897 ft | 454 kts | 194° |
| 2026-04-29 02:20 | 16.96148 | 3.39458 | 33895 ft | 463 kts | 197° |
| 2026-04-29 02:20 | 16.89988 | 3.37432 | 33889 ft | 470 kts | 199° |
| 2026-04-29 02:21 | 16.83678 | 3.35622 | 33902 ft | 469 kts | 183° |
| 2026-04-29 02:21 | 16.80476 | 3.35108 | 33874 ft | 468 kts | 196° |
| 2026-04-29 02:21 | 16.77432 | 3.33916 | 33880 ft | 469 kts | 206° |
| 2026-04-29 02:22 | 16.71548 | 3.31109 | 33897 ft | 471 kts | 200° |
| 2026-04-29 02:22 | 16.65323 | 3.28919 | 33885 ft | 474 kts | 198° |
| 2026-04-29 02:23 | 16.59075 | 3.26786 | 33885 ft | 475 kts | 198° |
| 2026-04-29 02:23 | 16.52832 | 3.24649 | 33885 ft | 476 kts | 198° |
| 2026-04-29 02:24 | 16.46532 | 3.22490 | 33884 ft | 476 kts | 198° |
| 2026-04-29 02:25 | 16.37117 | 3.19268 | 33881 ft | 476 kts | 198° |
| 2026-04-29 02:25 | 16.30863 | 3.17129 | 33883 ft | 476 kts | 198° |
| 2026-04-29 02:26 | 16.24587 | 3.14984 | 33884 ft | 477 kts | 198° |
| 2026-04-29 02:26 | 16.18314 | 3.12817 | 33883 ft | 477 kts | 199° |
| 2026-04-29 02:27 | 16.12067 | 3.10654 | 33886 ft | 476 kts | 199° |
| 2026-04-29 02:27 | 16.05803 | 3.08491 | 33883 ft | 477 kts | 199° |
| 2026-04-29 02:28 | 15.99519 | 3.06322 | 33880 ft | 477 kts | 199° |
| 2026-04-29 02:28 | 15.93233 | 3.04154 | 33884 ft | 476 kts | 199° |
| 2026-04-29 02:29 | 15.86987 | 3.02005 | 33860 ft | 477 kts | 199° |
| 2026-04-29 02:29 | 15.80702 | 2.99850 | 33876 ft | 476 kts | 199° |
| 2026-04-29 02:30 | 15.74432 | 2.97694 | 33880 ft | 476 kts | 199° |
| 2026-04-29 02:30 | 15.68176 | 2.95543 | 33881 ft | 476 kts | 199° |
| 2026-04-29 02:31 | 15.61901 | 2.93386 | 33882 ft | 476 kts | 199° |
| 2026-04-29 02:31 | 15.55637 | 2.91235 | 33884 ft | 476 kts | 199° |
| 2026-04-29 02:32 | 15.49411 | 2.89098 | 33884 ft | 476 kts | 199° |
| 2026-04-29 02:32 | 15.43103 | 2.86933 | 33883 ft | 476 kts | 199° |
| 2026-04-29 02:33 | 15.36842 | 2.84786 | 33882 ft | 476 kts | 199° |
| 2026-04-29 02:33 | 15.30610 | 2.82651 | 33884 ft | 476 kts | 199° |
| 2026-04-29 02:34 | 15.24336 | 2.80503 | 33883 ft | 476 kts | 199° |
| 2026-04-29 02:34 | 15.18048 | 2.78351 | 33884 ft | 476 kts | 199° |
| 2026-04-29 02:35 | 15.11776 | 2.76205 | 33884 ft | 476 kts | 199° |
| 2026-04-29 02:35 | 15.05533 | 2.74072 | 33883 ft | 476 kts | 199° |
| 2026-04-29 02:36 | 14.99278 | 2.71935 | 33883 ft | 476 kts | 199° |
| 2026-04-29 02:36 | 14.92974 | 2.69784 | 33882 ft | 477 kts | 199° |
| 2026-04-29 02:37 | 14.86705 | 2.67650 | 33865 ft | 478 kts | 199° |
| 2026-04-29 02:37 | 14.80390 | 2.65505 | 33878 ft | 479 kts | 199° |
| 2026-04-29 02:38 | 14.74121 | 2.63371 | 33884 ft | 479 kts | 199° |
| 2026-04-29 02:38 | 14.67818 | 2.61225 | 33883 ft | 480 kts | 199° |
| 2026-04-29 02:39 | 14.61492 | 2.59072 | 33884 ft | 480 kts | 199° |
| 2026-04-29 02:39 | 14.55180 | 2.56926 | 33884 ft | 480 kts | 199° |
| 2026-04-29 02:40 | 14.48856 | 2.54776 | 33885 ft | 480 kts | 199° |
| 2026-04-29 02:40 | 14.42516 | 2.52622 | 33885 ft | 480 kts | 199° |
| 2026-04-29 02:41 | 14.36216 | 2.50484 | 33884 ft | 480 kts | 199° |
| 2026-04-29 02:41 | 14.29872 | 2.48331 | 33884 ft | 480 kts | 199° |
| 2026-04-29 02:42 | 14.23579 | 2.46197 | 33885 ft | 480 kts | 199° |
| 2026-04-29 02:42 | 14.17240 | 2.44050 | 33883 ft | 480 kts | 199° |
| 2026-04-29 02:43 | 14.10938 | 2.41915 | 33883 ft | 480 kts | 199° |
| 2026-04-29 02:43 | 14.04589 | 2.39765 | 33884 ft | 480 kts | 199° |
| 2026-04-29 02:44 | 13.98271 | 2.37630 | 33884 ft | 480 kts | 199° |
| 2026-04-29 02:44 | 13.91960 | 2.35495 | 33884 ft | 480 kts | 199° |
| 2026-04-29 02:45 | 13.85630 | 2.33341 | 33885 ft | 480 kts | 199° |
| 2026-04-29 02:45 | 13.79329 | 2.31207 | 33846 ft | 481 kts | 199° |
| 2026-04-29 02:46 | 13.72968 | 2.29054 | 33853 ft | 481 kts | 199° |
| 2026-04-29 02:46 | 13.66628 | 2.26913 | 33849 ft | 481 kts | 199° |
| 2026-04-29 02:47 | 13.60310 | 2.24783 | 33849 ft | 481 kts | 199° |
| 2026-04-29 02:47 | 13.53983 | 2.22642 | 33851 ft | 481 kts | 200° |
| 2026-04-29 02:47 | 13.50978 | 2.21184 | 33853 ft | 478 kts | 212° |
| 2026-04-29 02:48 | 13.48339 | 2.19114 | 33854 ft | 477 kts | 224° |
| 2026-04-29 02:48 | 13.46208 | 2.16512 | 33846 ft | 477 kts | 236° |
| 2026-04-29 02:48 | 13.44690 | 2.13528 | 33850 ft | 477 kts | 248° |
| 2026-04-29 02:48 | 13.43825 | 2.10253 | 33850 ft | 478 kts | 260° |
| 2026-04-29 02:49 | 13.43342 | 2.06890 | 33853 ft | 479 kts | 260° |
| 2026-04-29 02:49 | 13.41941 | 2.00219 | 33862 ft | 479 kts | 254° |
| 2026-04-29 02:50 | 13.40106 | 1.93650 | 33855 ft | 480 kts | 252° |
| 2026-04-29 02:50 | 13.38162 | 1.87066 | 33854 ft | 481 kts | 252° |
| 2026-04-29 02:51 | 13.36216 | 1.80512 | 33853 ft | 481 kts | 252° |
| 2026-04-29 02:51 | 13.34273 | 1.73984 | 33854 ft | 481 kts | 252° |
| 2026-04-29 02:52 | 13.32321 | 1.67428 | 33854 ft | 481 kts | 252° |
| 2026-04-29 02:52 | 13.30368 | 1.60871 | 33854 ft | 481 kts | 252° |
| 2026-04-29 02:53 | 13.28417 | 1.54333 | 33851 ft | 481 kts | 252° |
| 2026-04-29 02:53 | 13.26457 | 1.47769 | 33852 ft | 481 kts | 252° |
| 2026-04-29 02:54 | 13.24510 | 1.41254 | 33853 ft | 481 kts | 252° |
| 2026-04-29 02:54 | 13.22538 | 1.34665 | 33853 ft | 482 kts | 252° |
| 2026-04-29 02:55 | 13.20585 | 1.28116 | 33856 ft | 481 kts | 252° |
| 2026-04-29 02:55 | 13.18624 | 1.21560 | 33851 ft | 482 kts | 252° |
| 2026-04-29 02:56 | 13.16655 | 1.14998 | 33855 ft | 481 kts | 252° |
| 2026-04-29 02:56 | 13.14690 | 1.08457 | 33854 ft | 480 kts | 252° |
| 2026-04-29 02:57 | 13.12740 | 1.01975 | 33855 ft | 478 kts | 252° |
| 2026-04-29 02:57 | 13.10790 | 0.95495 | 33853 ft | 476 kts | 252° |
| 2026-04-29 02:58 | 13.08845 | 0.89041 | 33847 ft | 475 kts | 252° |
| 2026-04-29 02:58 | 13.06886 | 0.82566 | 33846 ft | 475 kts | 251° |
| 2026-04-29 02:59 | 13.04926 | 0.76120 | 33846 ft | 475 kts | 251° |
| 2026-04-29 02:59 | 13.02962 | 0.69659 | 33845 ft | 476 kts | 251° |
| 2026-04-29 03:00 | 13.00995 | 0.63197 | 33845 ft | 477 kts | 251° |
| 2026-04-29 03:00 | 12.99015 | 0.56700 | 33846 ft | 478 kts | 251° |
| 2026-04-29 03:01 | 12.97047 | 0.50244 | 33848 ft | 479 kts | 251° |
| 2026-04-29 03:01 | 12.95050 | 0.43700 | 33849 ft | 480 kts | 251° |
| 2026-04-29 03:02 | 12.93064 | 0.37203 | 33852 ft | 481 kts | 251° |
| 2026-04-29 03:02 | 12.91159 | 0.30956 | 33722 ft | 472 kts | 251° |
| 2026-04-29 03:02 | 12.90195 | 0.27786 | 33294 ft | 460 kts | 251° |
| 2026-04-29 03:03 | 12.89246 | 0.24699 | 32818 ft | 452 kts | 250° |
| 2026-04-29 03:03 | 12.88296 | 0.21645 | 32300 ft | 447 kts | 250° |
| 2026-04-29 03:03 | 12.87369 | 0.18655 | 31783 ft | 442 kts | 250° |
| 2026-04-29 03:03 | 12.86452 | 0.15684 | 31266 ft | 438 kts | 250° |
| 2026-04-29 03:04 | 12.85545 | 0.12735 | 30750 ft | 434 kts | 250° |
| 2026-04-29 03:04 | 12.84644 | 0.09801 | 30234 ft | 430 kts | 250° |
| 2026-04-29 03:04 | 12.83748 | 0.06882 | 29719 ft | 426 kts | 250° |
| 2026-04-29 03:04 | 12.82867 | 0.04014 | 29211 ft | 423 kts | 250° |
| 2026-04-29 03:05 | 12.81991 | 0.01164 | 28706 ft | 419 kts | 250° |
| 2026-04-29 03:05 | 12.81129 | -0.01641 | 28207 ft | 416 kts | 250° |
| 2026-04-29 03:05 | 12.80265 | -0.04449 | 27706 ft | 412 kts | 250° |
| 2026-04-29 03:05 | 12.79407 | -0.07241 | 27207 ft | 409 kts | 250° |
| 2026-04-29 03:06 | 12.78551 | -0.10022 | 26708 ft | 406 kts | 249° |
| 2026-04-29 03:06 | 12.77710 | -0.12752 | 26219 ft | 403 kts | 249° |
| 2026-04-29 03:06 | 12.76872 | -0.15475 | 25729 ft | 399 kts | 249° |
| 2026-04-29 03:06 | 12.76054 | -0.18129 | 25249 ft | 396 kts | 249° |
| 2026-04-29 03:07 | 12.75225 | -0.20818 | 24763 ft | 393 kts | 249° |
| 2026-04-29 03:07 | 12.74406 | -0.23470 | 24282 ft | 390 kts | 249° |
| 2026-04-29 03:07 | 12.73592 | -0.26109 | 23804 ft | 387 kts | 249° |
| 2026-04-29 03:07 | 12.72787 | -0.28716 | 23331 ft | 385 kts | 249° |
| 2026-04-29 03:08 | 12.71989 | -0.31300 | 22861 ft | 382 kts | 249° |
| 2026-04-29 03:08 | 12.71186 | -0.33900 | 22388 ft | 379 kts | 249° |
| 2026-04-29 03:08 | 12.70395 | -0.36463 | 21922 ft | 376 kts | 249° |
| 2026-04-29 03:08 | 12.69610 | -0.39003 | 21459 ft | 374 kts | 249° |
| 2026-04-29 03:09 | 12.68832 | -0.41519 | 21032 ft | 370 kts | 249° |
| 2026-04-29 03:09 | 12.68073 | -0.43975 | 20790 ft | 362 kts | 249° |
| 2026-04-29 03:09 | 12.67318 | -0.46421 | 20513 ft | 355 kts | 249° |
| 2026-04-29 03:09 | 12.66581 | -0.48803 | 20219 ft | 349 kts | 249° |
| 2026-04-29 03:10 | 12.65863 | -0.51121 | 19912 ft | 344 kts | 249° |
| 2026-04-29 03:10 | 12.65141 | -0.53450 | 19588 ft | 340 kts | 249° |
| 2026-04-29 03:10 | 12.64433 | -0.55731 | 19270 ft | 341 kts | 249° |
| 2026-04-29 03:10 | 12.63713 | -0.58048 | 19134 ft | 341 kts | 249° |
| 2026-04-29 03:11 | 12.62986 | -0.60385 | 18854 ft | 347 kts | 249° |
| 2026-04-29 03:11 | 12.62254 | -0.62740 | 18614 ft | 350 kts | 249° |
| 2026-04-29 03:11 | 12.61518 | -0.65113 | 18471 ft | 350 kts | 249° |
| 2026-04-29 03:11 | 12.60781 | -0.67503 | 18275 ft | 352 kts | 249° |
| 2026-04-29 03:12 | 12.60042 | -0.69904 | 18070 ft | 354 kts | 249° |
| 2026-04-29 03:12 | 12.59300 | -0.72306 | 17887 ft | 355 kts | 249° |
| 2026-04-29 03:12 | 12.58555 | -0.74708 | 17715 ft | 356 kts | 249° |
| 2026-04-29 03:12 | 12.57808 | -0.77113 | 17551 ft | 356 kts | 249° |
| 2026-04-29 03:13 | 12.57058 | -0.79528 | 17396 ft | 356 kts | 249° |
| 2026-04-29 03:13 | 12.56308 | -0.81937 | 17246 ft | 356 kts | 249° |
| 2026-04-29 03:13 | 12.55566 | -0.84322 | 17102 ft | 355 kts | 249° |
| 2026-04-29 03:13 | 12.54812 | -0.86747 | 16959 ft | 355 kts | 249° |
| 2026-04-29 03:14 | 12.54076 | -0.89115 | 16805 ft | 346 kts | 249° |
| 2026-04-29 03:14 | 12.53363 | -0.91412 | 16605 ft | 337 kts | 249° |
| 2026-04-29 03:14 | 12.52654 | -0.93692 | 16369 ft | 330 kts | 249° |
| 2026-04-29 03:14 | 12.51971 | -0.95886 | 16114 ft | 323 kts | 249° |
| 2026-04-29 03:15 | 12.51295 | -0.98053 | 15909 ft | 315 kts | 249° |
| 2026-04-29 03:15 | 12.50635 | -1.00172 | 15751 ft | 307 kts | 249° |
| 2026-04-29 03:15 | 12.49994 | -1.02226 | 15476 ft | 303 kts | 248° |
| 2026-04-29 03:15 | 12.49356 | -1.04261 | 15192 ft | 300 kts | 248° |
| 2026-04-29 03:16 | 12.48723 | -1.06278 | 14901 ft | 297 kts | 248° |
| 2026-04-29 03:16 | 12.48099 | -1.08277 | 14606 ft | 294 kts | 248° |
| 2026-04-29 03:16 | 12.47482 | -1.10253 | 14282 ft | 294 kts | 251° |
| 2026-04-29 03:16 | 12.46863 | -1.12234 | 13959 ft | 293 kts | 251° |
| 2026-04-29 03:17 | 12.46244 | -1.14214 | 13647 ft | 292 kts | 250° |
| 2026-04-29 03:17 | 12.45627 | -1.16190 | 13343 ft | 290 kts | 250° |
| 2026-04-29 03:17 | 12.45015 | -1.18148 | 13045 ft | 288 kts | 249° |
| 2026-04-29 03:17 | 12.44408 | -1.20091 | 12752 ft | 286 kts | 249° |
| 2026-04-29 03:18 | 12.43801 | -1.22030 | 12460 ft | 284 kts | 249° |
| 2026-04-29 03:18 | 12.43201 | -1.23947 | 12168 ft | 282 kts | 249° |
| 2026-04-29 03:18 | 12.42606 | -1.25846 | 11877 ft | 281 kts | 249° |
| 2026-04-29 03:18 | 12.42016 | -1.27733 | 11583 ft | 279 kts | 249° |
| 2026-04-29 03:19 | 12.41431 | -1.29604 | 11289 ft | 278 kts | 249° |
| 2026-04-29 03:19 | 12.40839 | -1.31488 | 10989 ft | 276 kts | 249° |
| 2026-04-29 03:19 | 12.40248 | -1.33335 | 10695 ft | 275 kts | 249° |
| 2026-04-29 03:19 | 12.39648 | -1.35183 | 10402 ft | 273 kts | 249° |
| 2026-04-29 03:20 | 12.39037 | -1.37031 | 10109 ft | 272 kts | 249° |
| 2026-04-29 03:20 | 12.38427 | -1.38852 | 9820 ft | 270 kts | 249° |
| 2026-04-29 03:20 | 12.37817 | -1.40645 | 9536 ft | 268 kts | 249° |
| 2026-04-29 03:20 | 12.37194 | -1.42450 | 9258 ft | 272 kts | 249° |
| 2026-04-29 03:21 | 12.36541 | -1.44310 | 9100 ft | 279 kts | 249° |
| 2026-04-29 03:21 | 12.35894 | -1.46144 | 9152 ft | 277 kts | 249° |
| 2026-04-29 03:21 | 12.35272 | -1.48013 | 9140 ft | 278 kts | 257° |
| 2026-04-29 03:21 | 12.35027 | -1.49985 | 9156 ft | 277 kts | 267° |
| 2026-04-29 03:22 | 12.34921 | -1.51943 | 9141 ft | 277 kts | 268° |
| 2026-04-29 03:22 | 12.34828 | -1.53869 | 9127 ft | 264 kts | 266° |
| 2026-04-29 03:22 | 12.34491 | -1.55649 | 9160 ft | 246 kts | 254° |
| 2026-04-29 03:22 | 12.34034 | -1.57296 | 8961 ft | 236 kts | 253° |
| 2026-04-29 03:23 | 12.33584 | -1.58876 | 8653 ft | 232 kts | 253° |
| 2026-04-29 03:23 | 12.33130 | -1.60447 | 8327 ft | 230 kts | 253° |
| 2026-04-29 03:23 | 12.32653 | -1.62012 | 8022 ft | 231 kts | 248° |
| 2026-04-29 03:23 | 12.31793 | -1.63309 | 7853 ft | 212 kts | 220° |
| 2026-04-29 03:24 | 12.30623 | -1.64189 | 7510 ft | 205 kts | 211° |
| 2026-04-29 03:24 | 12.29445 | -1.65002 | 7180 ft | 202 kts | 211° |
| 2026-04-29 03:24 | 12.28303 | -1.65792 | 6851 ft | 201 kts | 213° |
| 2026-04-29 03:24 | 12.27158 | -1.66626 | 6510 ft | 201 kts | 213° |
| 2026-04-29 03:25 | 12.26764 | -1.66912 | 6394 ft | 200 kts | 213° |
| 2026-04-29 03:27 | 12.26581 | -1.67045 | 6341 ft | 200 kts | 213° |
| 2026-04-29 03:27 | 12.25451 | -1.67859 | 6015 ft | 199 kts | 213° |
| 2026-04-29 03:27 | 12.24254 | -1.68527 | 5708 ft | 193 kts | 193° |
| 2026-04-29 03:27 | 12.22968 | -1.68558 | 5422 ft | 184 kts | 162° |
| 2026-04-29 03:28 | 12.21901 | -1.67946 | 5120 ft | 176 kts | 130° |
| 2026-04-29 03:28 | 12.21131 | -1.66971 | 4796 ft | 175 kts | 123° |
| 2026-04-29 03:28 | 12.20419 | -1.65953 | 4477 ft | 180 kts | 121° |
| 2026-04-29 03:28 | 12.19698 | -1.64891 | 4199 ft | 183 kts | 121° |
| 2026-04-29 03:29 | 12.19263 | -1.63727 | 4090 ft | 168 kts | 90° |
| 2026-04-29 03:29 | 12.19506 | -1.62655 | 4157 ft | 149 kts | 58° |
| 2026-04-29 03:29 | 12.20118 | -1.61787 | 4144 ft | 156 kts | 50° |
| 2026-04-29 03:29 | 12.20919 | -1.60978 | 4174 ft | 167 kts | 37° |
| 2026-04-29 03:30 | 12.21856 | -1.60294 | 4063 ft | 170 kts | 34° |
| 2026-04-29 03:30 | 12.22845 | -1.59611 | 3764 ft | 172 kts | 33° |
| 2026-04-29 03:30 | 12.23828 | -1.58947 | 3487 ft | 166 kts | 33° |
| 2026-04-29 03:30 | 12.24776 | -1.58310 | 3257 ft | 160 kts | 33° |
| 2026-04-29 03:31 | 12.26605 | -1.57083 | 2856 ft | 159 kts | 33° |
| 2026-04-29 03:31 | 12.27148 | -1.56716 | 2739 ft | 165 kts | 33° |
| 2026-04-29 03:32 | 12.27671 | -1.56363 | 2617 ft | 170 kts | 32° |
| 2026-04-29 03:32 | 12.28658 | -1.55705 | 2367 ft | 172 kts | 37° |
| 2026-04-29 03:33 | 12.29656 | -1.55032 | 2123 ft | 168 kts | 35° |
| 2026-04-29 03:33 | 12.30626 | -1.54381 | 1905 ft | 168 kts | 36° |
| 2026-04-29 03:33 | 12.31609 | -1.53723 | 1682 ft | 170 kts | 36° |
| 2026-04-29 03:33 | 12.32591 | -1.53060 | 1447 ft | 171 kts | 34° |
| 2026-04-29 03:34 | 12.33567 | -1.52410 | 1221 ft | 165 kts | 35° |
| 2026-04-29 03:34 | 12.34515 | -1.51775 | 1052 ft | 157 kts | 34° |
| 2026-04-29 03:34 | 12.35285 | -1.51253 | 1028 ft | 85 kts | 35° |
| 2026-04-29 03:34 | 12.35544 | -1.51079 | 1021 ft | 28 kts | 32° |
| 2026-04-29 03:35 | 12.35678 | -1.50990 | 1016 ft | 21 kts | 32° |
| 2026-04-29 03:35 | 12.35765 | -1.50932 | 1013 ft | 14 kts | 33° |
| 2026-04-29 03:35 | 12.35856 | -1.50941 | 1012 ft | 13 kts | 324° |
| 2026-04-29 03:35 | 12.35929 | -1.50997 | 1011 ft | 13 kts | 322° |
| 2026-04-29 03:36 | 12.35986 | -1.51040 | 1009 ft | 1 kts | 323° |
| 2026-04-29 03:36 | 12.36013 | -1.51062 | 1008 ft | 10 kts | 321° |
| 2026-04-29 03:36 | 12.36081 | -1.51116 | 1008 ft | 12 kts | 326° |
| 2026-04-29 03:36 | 12.36156 | -1.51166 | 1007 ft | 11 kts | 324° |
| 2026-04-29 03:37 | 12.36191 | -1.51193 | 1007 ft | 6 kts | 323° |
| 2026-04-29 03:37 | 12.36216 | -1.51232 | 1007 ft | 7 kts | 277° |
| 2026-04-29 03:37 | 12.36198 | -1.51255 | 1007 ft | 4 kts | 173° |
| 2026-04-29 03:37 | 12.36191 | -1.51249 | 1007 ft | 1 kts | 127° |
| 2026-04-29 03:38 | 12.36190 | -1.51239 | 1007 ft | 0 kts | 81° |